Time;durP1;ratioP1;P1;durP2;ratioP2;P2;SDS_P1;SDS_P2;PMS_P1;PMS_P2;Temp;Humidity;BMP_temperature;BMP_pressure;BME280_temperature;BME280_humidity;BME280_pressure;Samples;Min_cycle;Max_cycle;Signal;HPM_P1;HPM_P2
2022/03/14 00:01:03;;;;;;;11.57;9.13;;;;;;;1.72;51.15;101115.38;5023380;28;20664;-81
2022/03/14 00:03:48;;;;;;;10.93;8.67;;;;;;;1.70;50.94;101122.41;5025443;28;20213;-83
2022/03/14 00:06:14;;;;;;;11.43;9.33;;;;;;;1.70;51.35;101124.16;5024804;28;20203;-82
2022/03/14 00:08:44;;;;;;;11.30;9.63;;;;;;;1.70;50.91;101122.41;5025749;28;20609;-81
2022/03/14 00:11:12;;;;;;;12.33;9.37;;;;;;;1.70;51.43;101132.06;5023578;28;20234;-81
2022/03/14 00:13:40;;;;;;;17.43;10.60;;;;;;;1.69;51.50;101131.19;5024891;28;20211;-80
2022/03/14 00:16:08;;;;;;;15.00;10.10;;;;;;;1.68;51.35;101123.34;5039505;28;20294;-84
2022/03/14 00:18:37;;;;;;;12.23;10.00;;;;;;;1.66;51.18;101133.00;5029097;28;20272;-81
2022/03/14 00:21:05;;;;;;;11.80;9.23;;;;;;;1.64;51.18;101137.41;5033941;28;20656;-82
2022/03/14 00:23:32;;;;;;;9.90;8.90;;;;;;;1.62;51.58;101136.56;5027625;28;20213;-82
2022/03/14 00:26:00;;;;;;;13.53;9.90;;;;;;;1.60;51.65;101141.00;5034161;28;20207;-80
2022/03/14 00:28:26;;;;;;;13.33;10.23;;;;;;;1.55;51.55;101135.84;5034160;28;20244;-82
2022/03/14 00:30:53;;;;;;;17.10;10.50;;;;;;;1.46;52.29;101146.50;5034965;28;20229;-83
2022/03/14 00:33:19;;;;;;;13.97;10.93;;;;;;;1.39;52.80;101148.38;5035954;28;20212;-82
2022/03/14 00:35:47;;;;;;;16.87;10.67;;;;;;;1.35;53.89;101148.44;5041740;28;20217;-82
2022/03/14 00:38:15;;;;;;;12.17;10.50;;;;;;;1.34;53.93;101149.34;5020686;28;20241;-81
2022/03/14 00:40:42;;;;;;;18.23;11.03;;;;;;;1.31;54.41;101155.50;5030937;28;20292;-81
2022/03/14 00:43:08;;;;;;;13.63;10.93;;;;;;;1.30;54.84;101158.16;5041491;28;20241;-83
2022/03/14 00:45:35;;;;;;;13.83;10.77;;;;;;;1.29;54.63;101159.91;5032652;28;20244;-81
2022/03/14 00:48:02;;;;;;;13.20;9.87;;;;;;;1.28;55.47;101158.19;5024468;28;20234;-81
2022/03/14 00:50:28;;;;;;;15.87;10.37;;;;;;;1.27;55.38;101155.56;5028570;28;20206;-82
2022/03/14 00:52:56;;;;;;;14.23;9.90;;;;;;;1.25;55.21;101152.16;5036471;28;20202;-81
2022/03/14 00:55:22;;;;;;;13.37;10.37;;;;;;;1.22;55.77;101142.56;5029984;28;20215;-81
2022/03/14 00:57:49;;;;;;;15.23;10.40;;;;;;;1.22;55.67;101146.94;5025937;28;20696;-80
2022/03/14 01:00:16;;;;;;;15.07;10.67;;;;;;;1.20;55.83;101157.47;5034673;28;20222;-81
2022/03/14 01:02:42;;;;;;;18.50;12.00;;;;;;;1.18;56.08;101156.63;5030840;28;20202;-81
2022/03/14 01:05:09;;;;;;;12.57;10.20;;;;;;;1.17;55.84;101156.63;5040324;28;20213;-81
2022/03/14 01:07:36;;;;;;;16.40;11.23;;;;;;;1.14;56.17;101152.31;5031290;28;20253;-82
2022/03/14 01:10:05;;;;;;;14.93;11.23;;;;;;;1.12;56.03;101159.34;5035690;28;20193;-81
2022/03/14 01:12:32;;;;;;;15.27;11.07;;;;;;;1.11;56.40;101152.34;5025290;28;20202;-81
2022/03/14 01:14:58;;;;;;;15.67;10.97;;;;;;;1.08;56.56;101162.88;5037190;28;20234;-80
2022/03/14 01:17:25;;;;;;;16.50;10.97;;;;;;;1.03;56.63;101159.50;5036542;28;20215;-83
2022/03/14 01:19:51;;;;;;;16.70;11.33;;;;;;;1.00;56.88;101168.28;5036960;28;20210;-80
2022/03/14 01:22:18;;;;;;;13.80;10.67;;;;;;;1.00;57.02;101173.53;5035627;28;20203;-81
2022/03/14 01:24:44;;;;;;;14.27;10.70;;;;;;;0.98;57.06;101171.81;5035761;28;20202;-82
2022/03/14 01:27:13;;;;;;;14.93;10.90;;;;;;;0.97;57.15;101172.69;5023891;28;20207;-83
2022/03/14 01:29:40;;;;;;;17.20;11.43;;;;;;;0.96;57.23;101178.84;5021907;28;20571;-81
2022/03/14 01:32:09;;;;;;;13.23;10.90;;;;;;;0.94;57.39;101177.97;5027822;28;20816;-81
2022/03/14 01:34:36;;;;;;;19.30;11.67;;;;;;;0.94;57.52;101175.34;5032081;28;20229;-82
2022/03/14 01:37:04;;;;;;;15.20;11.33;;;;;;;0.93;57.63;101176.25;5027522;28;20216;-81
2022/03/14 01:39:30;;;;;;;14.50;10.67;;;;;;;0.93;57.74;101186.75;5024366;28;20233;-82
2022/03/14 01:41:57;;;;;;;15.73;10.60;;;;;;;0.93;58.15;101181.50;5019516;28;20217;-82
2022/03/14 01:44:25;;;;;;;13.87;10.10;;;;;;;0.91;57.79;101171.03;5030252;28;20277;-81
2022/03/14 01:46:52;;;;;;;12.47;10.10;;;;;;;0.89;57.52;101171.97;5038824;28;20669;-80
2022/03/14 01:49:19;;;;;;;12.67;9.57;;;;;;;0.79;56.48;101179.09;5034052;28;20293;-81
2022/03/14 01:51:46;;;;;;;14.10;8.70;;;;;;;0.62;56.29;101181.09;5039069;28;20210;-81
2022/03/14 01:54:13;;;;;;;12.73;9.10;;;;;;;0.51;56.63;101185.63;5033357;28;20205;-81
2022/03/14 01:56:40;;;;;;;15.23;11.53;;;;;;;0.42;57.13;101181.34;5041181;28;20206;-81
2022/03/14 01:59:08;;;;;;;15.57;10.43;;;;;;;0.38;57.71;101184.91;5045445;28;20272;-80
2022/03/14 02:01:36;;;;;;;14.50;11.40;;;;;;;0.36;57.87;101176.19;5030440;28;20224;-81
2022/03/14 02:04:03;;;;;;;16.13;11.30;;;;;;;0.36;58.11;101176.19;5024216;28;20208;-81
2022/03/14 02:06:30;;;;;;;15.47;10.57;;;;;;;0.37;58.57;101182.31;5029804;28;20210;-83
2022/03/14 02:08:57;;;;;;;14.20;10.57;;;;;;;0.37;58.51;101177.94;5034438;28;20297;-83
2022/03/14 02:11:23;;;;;;;17.40;10.90;;;;;;;0.39;58.76;101178.78;5026451;28;20642;-82
2022/03/14 02:13:50;;;;;;;13.67;10.27;;;;;;;0.40;58.93;101175.28;5030526;28;20657;-82
2022/03/14 02:16:17;;;;;;;14.73;9.83;;;;;;;0.42;59.11;101173.50;5044751;28;20801;-81
2022/03/14 02:18:44;;;;;;;13.27;8.50;;;;;;;0.42;59.13;101178.75;5032475;28;20222;-81
2022/03/14 02:21:13;;;;;;;13.07;9.60;;;;;;;0.42;59.01;101180.50;5040250;28;20215;-82
2022/03/14 02:23:40;;;;;;;14.43;10.33;;;;;;;0.41;58.86;101190.09;5030108;28;20632;-82
2022/03/14 02:26:07;;;;;;;13.10;10.63;;;;;;;0.40;58.87;101183.13;5036688;28;20229;-83
2022/03/14 02:28:34;;;;;;;14.13;9.73;;;;;;;0.40;58.99;101188.38;5026368;28;20317;-81
2022/03/14 02:31:03;;;;;;;12.67;9.77;;;;;;;0.40;58.86;101187.50;5029840;28;20645;-81
2022/03/14 02:33:30;;;;;;;15.17;10.60;;;;;;;0.39;58.93;101189.25;5026610;28;20206;-81
2022/03/14 02:35:56;;;;;;;17.10;10.70;;;;;;;0.40;58.87;101197.97;5042730;28;20217;-81
2022/03/14 02:38:24;;;;;;;13.40;10.60;;;;;;;0.40;58.93;101203.22;5045894;28;20218;-80
2022/03/14 02:40:50;;;;;;;14.20;9.53;;;;;;;0.41;58.99;101208.44;5035863;28;20198;-82
2022/03/14 02:43:20;;;;;;;15.07;10.83;;;;;;;0.43;59.29;101211.91;5036758;28;20199;-81
2022/03/14 02:45:47;;;;;;;14.43;10.47;;;;;;;0.43;59.38;101214.53;5034366;28;20713;-80
2022/03/14 02:48:14;;;;;;;14.87;10.40;;;;;;;0.44;59.84;101218.91;5036462;28;20236;-81
2022/03/14 02:50:42;;;;;;;13.43;10.50;;;;;;;0.45;59.53;101220.63;5035860;28;20217;-81
2022/03/14 02:53:09;;;;;;;13.70;10.83;;;;;;;0.47;59.53;101215.38;5031008;28;20301;-82
2022/03/14 02:55:37;;;;;;;14.20;10.07;;;;;;;0.47;59.53;101218.84;5035472;28;20210;-82
2022/03/14 02:58:03;;;;;;;13.77;9.57;;;;;;;0.49;59.70;101221.47;5035500;28;20230;-82
2022/03/14 03:00:30;;;;;;;15.43;10.67;;;;;;;0.49;59.88;101219.72;5021536;28;20217;-83
2022/03/14 03:02:57;;;;;;;12.70;9.80;;;;;;;0.49;59.91;101224.94;5034035;28;20575;-81
2022/03/14 03:05:23;;;;;;;14.03;10.30;;;;;;;0.50;60.05;101226.69;5035785;28;20213;-81
2022/03/14 03:07:50;;;;;;;13.90;9.97;;;;;;;0.50;59.96;101231.06;5030918;28;20226;-81
2022/03/14 03:10:23;;;;;;;15.10;9.73;;;;;;;0.48;59.84;101230.22;5036416;28;20237;-80
2022/03/14 03:12:52;;;;;;;13.53;9.57;;;;;;;0.46;59.92;101235.47;5043540;28;20557;-80
2022/03/14 03:15:19;;;;;;;13.23;8.80;;;;;;;0.45;60.04;101238.97;5038823;28;20593;-81
2022/03/14 03:17:46;;;;;;;14.63;9.60;;;;;;;0.42;59.46;101239.00;5035179;28;20202;-81
2022/03/14 03:20:14;;;;;;;11.03;8.40;;;;;;;0.41;59.62;101236.41;5024092;28;20209;-81
2022/03/14 03:22:41;;;;;;;12.20;9.30;;;;;;;0.38;59.35;101237.31;5033192;28;20229;-81
2022/03/14 03:25:08;;;;;;;14.43;9.10;;;;;;;0.39;59.37;101249.53;5035629;28;20206;-82
2022/03/14 03:27:35;;;;;;;14.63;9.07;;;;;;;0.39;59.37;101246.91;5035983;28;20640;-81
2022/03/14 03:30:05;;;;;;;12.10;9.23;;;;;;;0.38;59.19;101244.28;5035675;28;20695;-81
2022/03/14 03:32:32;;;;;;;12.90;8.67;;;;;;;0.36;59.28;101249.56;5036286;28;20220;-81
2022/03/14 03:34:59;;;;;;;11.97;8.73;;;;;;;0.35;59.17;101247.84;5023020;28;20211;-81
2022/03/14 03:37:25;;;;;;;10.60;8.70;;;;;;;0.35;59.09;101255.72;5017748;28;20221;-81
2022/03/14 03:39:52;;;;;;;12.57;8.70;;;;;;;0.34;58.98;101244.34;5026600;28;20233;-82
2022/03/14 03:42:18;;;;;;;12.27;8.73;;;;;;;0.35;59.12;101245.22;5027101;28;20206;-82
2022/03/14 03:44:45;;;;;;;11.40;8.20;;;;;;;0.40;58.86;101237.28;5027247;28;20244;-82
2022/03/14 03:47:12;;;;;;;13.60;9.23;;;;;;;0.42;58.66;101252.09;5033543;28;20253;-81
2022/03/14 03:49:39;;;;;;;12.43;8.63;;;;;;;0.44;58.41;101246.84;5020744;28;20237;-82
2022/03/14 03:52:07;;;;;;;12.93;9.00;;;;;;;0.43;58.16;101251.22;5029486;28;20205;-83
2022/03/14 03:54:33;;;;;;;12.47;7.97;;;;;;;0.45;58.21;101252.06;5034592;28;20287;-82
2022/03/14 03:57:00;;;;;;;10.73;7.83;;;;;;;0.46;57.83;101248.56;5034722;28;20296;-82
2022/03/14 03:59:26;;;;;;;11.67;8.40;;;;;;;0.47;57.87;101258.16;5027464;28;20221;-81
2022/03/14 04:01:53;;;;;;;13.63;8.00;;;;;;;0.49;57.72;101256.41;5042899;28;20272;-81
2022/03/14 04:04:22;;;;;;;9.50;7.43;;;;;;;0.52;57.54;101259.00;5034741;28;20202;-81
2022/03/14 04:06:49;;;;;;;11.67;7.90;;;;;;;0.56;57.39;101258.03;5022916;28;20214;-82
2022/03/14 04:09:15;;;;;;;12.13;8.80;;;;;;;0.59;57.32;101257.13;5032719;28;20693;-81
2022/03/14 04:11:42;;;;;;;12.87;7.60;;;;;;;0.63;57.15;101264.09;5022792;28;20618;-81
2022/03/14 04:14:10;;;;;;;11.80;7.77;;;;;;;0.67;56.88;101265.78;5034810;28;20221;-82
2022/03/14 04:16:37;;;;;;;12.70;8.00;;;;;;;0.72;56.57;101260.50;5028831;28;20202;-81
2022/03/14 04:19:03;;;;;;;11.30;8.17;;;;;;;0.76;56.38;101264.78;5028335;28;20226;-80
2022/03/14 04:21:36;;;;;;;10.70;7.53;;;;;;;0.79;56.07;101254.25;5022816;28;20202;-82
2022/03/14 04:24:06;;;;;;;10.47;8.03;;;;;;;0.80;55.91;101262.09;5031800;28;20206;-82
2022/03/14 04:26:32;;;;;;;12.23;8.53;;;;;;;0.84;56.13;101262.94;5039578;28;20269;-82
2022/03/14 04:28:59;;;;;;;11.67;8.10;;;;;;;0.84;55.81;101261.19;5025464;28;20704;-81
2022/03/14 04:31:27;;;;;;;10.80;8.77;;;;;;;0.87;55.65;101257.66;5020850;28;20231;-81
2022/03/14 04:33:54;;;;;;;12.50;8.20;;;;;;;0.87;55.22;101261.16;5030198;28;20221;-81
2022/03/14 04:36:20;;;;;;;12.57;8.47;;;;;;;0.88;55.27;101262.00;5035131;28;20213;-81
2022/03/14 04:38:48;;;;;;;12.43;8.20;;;;;;;0.88;55.28;101275.13;5022441;28;20236;-82
2022/03/14 04:41:14;;;;;;;12.20;8.67;;;;;;;0.87;55.22;101276.00;5033463;28;20284;-82
2022/03/14 04:43:41;;;;;;;12.73;8.53;;;;;;;0.86;55.18;101274.28;5032511;28;20202;-83
2022/03/14 04:46:08;;;;;;;15.27;9.90;;;;;;;0.84;55.18;101286.53;5027519;28;20236;-82
2022/03/14 04:48:34;;;;;;;13.77;9.43;;;;;;;0.82;54.97;101283.94;5023624;28;20222;-82
2022/03/14 04:51:01;;;;;;;12.27;8.40;;;;;;;0.82;54.94;101290.94;5026036;28;20230;-82
2022/03/14 04:53:27;;;;;;;11.93;9.27;;;;;;;0.80;55.19;101293.56;5035912;28;20205;-81
2022/03/14 04:55:55;;;;;;;13.17;8.93;;;;;;;0.79;55.23;101291.84;5021068;28;20228;-81
2022/03/14 04:58:22;;;;;;;12.73;9.10;;;;;;;0.78;55.25;101295.34;5035054;28;20610;-82
2022/03/14 05:00:49;;;;;;;12.30;8.50;;;;;;;0.76;55.29;101298.88;5017851;28;20215;-81
2022/03/14 05:03:15;;;;;;;12.83;8.70;;;;;;;0.74;55.12;101298.00;5022080;28;20679;-80
2022/03/14 05:05:42;;;;;;;11.10;8.33;;;;;;;0.73;55.25;101298.91;5033609;28;20214;-83
2022/03/14 05:08:08;;;;;;;12.63;9.03;;;;;;;0.69;55.48;101309.44;5028447;28;20261;-82
2022/03/14 05:10:35;;;;;;;11.73;8.90;;;;;;;0.65;55.52;101305.13;5019608;28;20318;-82
2022/03/14 05:13:03;;;;;;;12.17;9.83;;;;;;;0.63;55.83;101312.13;5032829;28;20206;-81
2022/03/14 05:15:31;;;;;;;12.83;9.53;;;;;;;0.60;55.72;101312.16;5015071;28;20218;-82
2022/03/14 05:17:58;;;;;;;12.13;8.53;;;;;;;0.57;56.08;101306.94;5039758;28;20231;-81
2022/03/14 05:20:25;;;;;;;12.60;8.90;;;;;;;0.53;56.37;101312.28;5029632;28;20325;-80
2022/03/14 05:22:52;;;;;;;12.00;8.03;;;;;;;0.51;56.32;101312.28;5029042;28;20201;-82
2022/03/14 05:25:19;;;;;;;12.83;8.90;;;;;;;0.47;56.52;101315.81;5024618;28;20213;-81
2022/03/14 05:27:46;;;;;;;12.80;9.67;;;;;;;0.45;56.97;101320.22;5029790;28;20210;-81
2022/03/14 05:30:15;;;;;;;12.00;9.30;;;;;;;0.44;57.37;101318.47;5021504;28;20230;-83
2022/03/14 05:32:42;;;;;;;13.53;8.90;;;;;;;0.45;57.42;101317.59;5037390;28;20206;-83
2022/03/14 05:35:11;;;;;;;12.43;8.93;;;;;;;0.44;57.21;101314.97;5028705;28;20210;-81
2022/03/14 05:37:38;;;;;;;11.77;8.80;;;;;;;0.45;57.69;101320.22;5032987;28;20250;-81
2022/03/14 05:40:06;;;;;;;13.40;9.93;;;;;;;0.46;57.83;101314.09;5024996;28;20210;-81
2022/03/14 05:42:32;;;;;;;18.10;10.33;;;;;;;0.47;58.22;101320.19;5032308;28;20205;-81
2022/03/14 05:44:59;;;;;;;16.33;10.73;;;;;;;0.50;58.27;101314.94;5028485;28;20214;-81
2022/03/14 05:47:27;;;;;;;19.80;10.53;;;;;;;0.53;58.46;101322.75;5027864;28;20204;-81
2022/03/14 05:49:53;;;;;;;15.23;10.20;;;;;;;0.55;58.58;101319.22;5035253;28;20711;-83
2022/03/14 05:52:21;;;;;;;17.73;11.23;;;;;;;0.59;58.71;101326.16;5026912;28;20203;-83
2022/03/14 05:54:48;;;;;;;15.07;10.67;;;;;;;0.63;58.73;101327.84;5024357;28;20669;-82
2022/03/14 05:57:15;;;;;;;14.57;9.77;;;;;;;0.67;58.98;101334.81;5016193;28;20206;-81
2022/03/14 05:59:41;;;;;;;14.37;9.90;;;;;;;0.71;59.48;101335.66;5027672;28;20280;-82
2022/03/14 06:02:10;;;;;;;12.13;10.00;;;;;;;0.75;59.50;101339.94;5033222;28;20665;-81
2022/03/14 06:04:38;;;;;;;13.23;10.17;;;;;;;0.79;59.81;101343.41;5025580;28;20650;-82
2022/03/14 06:07:05;;;;;;;13.23;9.93;;;;;;;0.83;59.80;101343.34;5032580;28;20221;-83
2022/03/14 06:09:32;;;;;;;14.03;10.17;;;;;;;0.87;60.05;101346.81;5028706;28;20599;-81
2022/03/14 06:11:58;;;;;;;15.67;10.77;;;;;;;0.92;60.09;101344.97;5024755;28;20211;-81
2022/03/14 06:14:25;;;;;;;19.47;12.10;;;;;;;0.96;60.15;101349.31;5024888;28;20303;-83
2022/03/14 06:16:51;;;;;;;19.57;10.40;;;;;;;1.00;60.25;101361.50;5019243;28;20215;-83
2022/03/14 06:19:18;;;;;;;22.10;10.77;;;;;;;1.05;60.36;101359.69;5022378;28;20320;-82
2022/03/14 06:21:46;;;;;;;19.87;11.10;;;;;;;1.11;60.07;101364.84;5038179;28;20203;-83
2022/03/14 06:24:12;;;;;;;21.30;10.30;;;;;;;1.16;60.34;101370.91;5038681;28;20221;-83
2022/03/14 06:26:39;;;;;;;16.70;10.77;;;;;;;1.21;60.46;101369.09;5032616;28;20221;-81
2022/03/14 06:29:05;;;;;;;21.83;10.80;;;;;;;1.27;60.51;101376.84;5020436;28;20289;-82
2022/03/14 06:31:33;;;;;;;23.73;11.17;;;;;;;1.33;60.20;101374.16;5042575;28;20581;-83
2022/03/14 06:33:59;;;;;;;20.30;10.93;;;;;;;1.39;60.75;101378.47;5025290;28;20302;-83
2022/03/14 06:36:27;;;;;;;21.80;10.43;;;;;;;1.44;60.82;101375.75;5022663;28;20215;-82
2022/03/14 06:38:59;;;;;;;20.17;11.43;;;;;;;1.50;60.56;101375.66;5027906;28;20701;-82
2022/03/14 06:41:26;;;;;;;15.17;10.63;;;;;;;1.55;60.62;101386.97;5030098;28;20198;-81
2022/03/14 06:43:55;;;;;;;15.80;10.33;;;;;;;1.61;60.29;101389.53;5031080;28;20257;-81
2022/03/14 06:46:22;;;;;;;18.63;11.17;;;;;;;1.67;60.67;101389.41;5034983;28;20252;-83
2022/03/14 06:48:49;;;;;;;22.37;12.00;;;;;;;1.73;61.00;101395.44;5030852;28;20237;-82
2022/03/14 06:51:15;;;;;;;15.53;11.23;;;;;;;1.80;61.05;101396.22;5027282;28;20230;-81
2022/03/14 06:53:42;;;;;;;14.93;11.00;;;;;;;1.86;61.19;101395.25;5023651;28;20214;-83
2022/03/14 06:56:10;;;;;;;15.63;10.73;;;;;;;1.91;61.09;101399.56;5032744;28;20201;-83
2022/03/14 06:58:37;;;;;;;15.83;10.60;;;;;;;1.94;61.10;101404.75;5031222;28;20815;-81
2022/03/14 07:01:03;;;;;;;21.47;11.07;;;;;;;2.00;60.47;101403.78;5027009;28;20214;-81
2022/03/14 07:03:30;;;;;;;15.30;10.60;;;;;;;2.06;61.18;101408.94;5027409;28;20195;-82
2022/03/14 07:05:56;;;;;;;12.87;9.20;;;;;;;2.15;61.72;101419.28;5029393;28;20206;-82
2022/03/14 07:08:23;;;;;;;10.60;7.97;;;;;;;2.31;61.91;101422.56;5026206;28;20618;-81
2022/03/14 07:10:49;;;;;;;10.10;7.50;;;;;;;2.56;60.94;101426.47;5025201;28;20231;-83
2022/03/14 07:13:17;;;;;;;13.43;8.57;;;;;;;2.85;59.94;101430.34;5023897;28;20700;-82
2022/03/14 07:15:44;;;;;;;13.43;7.80;;;;;;;3.16;59.04;101439.34;5023904;28;20215;-83
2022/03/14 07:18:11;;;;;;;10.27;8.10;;;;;;;3.45;57.36;101439.59;5023848;28;20483;-83
2022/03/14 07:20:37;;;;;;;13.27;8.00;;;;;;;3.73;56.53;101442.50;5028892;28;20207;-82
2022/03/14 07:23:06;;;;;;;11.73;8.00;;;;;;;4.01;55.46;101453.25;5025165;28;20211;-81
2022/03/14 07:25:37;;;;;;;10.53;8.57;;;;;;;4.27;54.95;101454.41;5026873;28;20629;-81
2022/03/14 07:28:07;;;;;;;10.57;8.17;;;;;;;4.53;54.03;101465.16;5026595;28;20421;-81
2022/03/14 07:30:35;;;;;;;13.30;8.80;;;;;;;4.76;54.07;101472.50;5023580;28;20829;-80
2022/03/14 07:33:01;;;;;;;15.40;8.93;;;;;;;4.95;53.25;101465.81;5026599;28;20676;-80
2022/03/14 07:35:29;;;;;;;15.73;9.33;;;;;;;5.11;52.66;101464.50;5023807;28;20198;-81
2022/03/14 07:37:56;;;;;;;11.57;8.73;;;;;;;5.27;52.52;101466.69;5028700;28;20230;-80
2022/03/14 07:40:23;;;;;;;12.43;9.70;;;;;;;5.41;52.59;101464.50;5030691;28;20751;-81
2022/03/14 07:42:51;;;;;;;11.17;8.80;;;;;;;5.55;52.40;101462.38;5026226;28;20737;-80
2022/03/14 07:45:21;;;;;;;13.10;9.70;;;;;;;5.69;52.44;101467.22;5025126;28;20210;-80
2022/03/14 07:47:49;;;;;;;10.90;8.97;;;;;;;5.79;52.34;101463.38;5024722;28;20342;-81
2022/03/14 07:50:19;;;;;;;14.77;9.57;;;;;;;5.90;52.08;101469.25;5021782;28;20315;-80
2022/03/14 07:52:47;;;;;;;13.97;8.77;;;;;;;6.01;51.95;101466.25;5017107;28;20203;-80
2022/03/14 07:55:13;;;;;;;14.83;9.10;;;;;;;6.10;51.85;101461.53;5021400;28;20214;-80
2022/03/14 07:57:43;;;;;;;13.57;9.70;;;;;;;6.21;52.08;101463.84;5025719;28;20642;-81
2022/03/14 08:00:14;;;;;;;18.57;10.60;;;;;;;6.31;52.41;101474.97;5022071;28;20213;-79
2022/03/14 08:02:42;;;;;;;13.60;10.00;;;;;;;6.40;52.31;101480.00;5024519;28;20230;-79
2022/03/14 08:05:13;;;;;;;15.77;10.50;;;;;;;6.49;52.41;101472.59;5025580;28;20700;-79
2022/03/14 08:07:40;;;;;;;12.67;10.17;;;;;;;6.59;53.19;101468.75;5026865;28;20194;-79
2022/03/14 08:10:09;;;;;;;12.57;9.93;;;;;;;6.68;53.91;101470.19;5026602;28;20293;-82
2022/03/14 08:12:43;;;;;;;12.40;9.87;;;;;;;6.78;54.30;101476.06;5022720;28;20218;-81
2022/03/14 08:15:09;;;;;;;14.00;10.43;;;;;;;6.87;55.15;101473.06;5030979;28;20297;-81
2022/03/14 08:17:36;;;;;;;13.87;10.13;;;;;;;6.96;55.12;101475.41;5023298;28;21130;-81
2022/03/14 08:20:06;;;;;;;14.73;10.67;;;;;;;7.05;54.99;101483.03;5027135;28;20206;-80
2022/03/14 08:22:34;;;;;;;13.00;10.33;;;;;;;7.15;55.97;101475.63;5020956;28;20214;-79
2022/03/14 08:25:01;;;;;;;14.17;11.07;;;;;;;7.23;56.03;101478.84;5025943;28;20285;-79
2022/03/14 08:27:27;;;;;;;13.30;10.37;;;;;;;7.29;56.35;101486.59;5024030;28;20810;-79
2022/03/14 08:29:54;;;;;;;16.83;11.23;;;;;;;7.35;56.38;101488.13;5024068;28;20732;-80
2022/03/14 08:32:23;;;;;;;12.67;9.93;;;;;;;7.40;56.34;101491.47;5026361;28;20218;-79
2022/03/14 08:34:51;;;;;;;13.87;9.97;;;;;;;7.45;56.43;101490.41;5025504;28;20296;-80
2022/03/14 08:37:17;;;;;;;13.60;10.53;;;;;;;7.49;56.25;101491.16;5020260;28;20552;-79
2022/03/14 08:39:48;;;;;;;12.00;9.27;;;;;;;7.53;56.94;101498.91;5024714;28;20234;-81
2022/03/14 08:42:17;;;;;;;14.63;9.80;;;;;;;7.60;57.24;101499.56;5025414;28;20799;-80
2022/03/14 08:44:43;;;;;;;11.93;10.17;;;;;;;7.64;57.53;101509.13;5023856;28;20220;-80
2022/03/14 08:47:10;;;;;;;12.13;9.80;;;;;;;7.70;57.93;101508.06;5021647;28;20206;-80
2022/03/14 08:49:37;;;;;;;12.57;9.60;;;;;;;7.76;58.55;101505.16;5022950;28;20789;-81
2022/03/14 08:52:03;;;;;;;11.93;9.93;;;;;;;7.81;58.91;101498.75;5028374;28;20226;-80
2022/03/14 08:54:30;;;;;;;12.50;9.80;;;;;;;7.90;59.47;101502.81;5026618;28;20203;-80
2022/03/14 08:56:58;;;;;;;12.43;10.40;;;;;;;7.97;59.13;101504.31;5029372;28;20672;-82
2022/03/14 08:59:24;;;;;;;15.97;10.00;;;;;;;8.04;60.40;101500.53;5037787;28;20229;-80
2022/03/14 09:01:51;;;;;;;11.70;9.50;;;;;;;8.11;60.10;101501.97;5035000;28;20202;-79
2022/03/14 09:04:18;;;;;;;14.00;10.17;;;;;;;8.19;60.93;101505.22;5029313;28;20207;-81
2022/03/14 09:06:45;;;;;;;13.00;9.70;;;;;;;8.28;61.60;101514.59;5029386;28;20253;-80
2022/03/14 09:09:12;;;;;;;12.90;9.53;;;;;;;8.35;61.49;101506.34;5038428;28;20222;-80
2022/03/14 09:11:39;;;;;;;14.23;10.67;;;;;;;8.45;62.81;101511.28;5030756;28;20249;-80
2022/03/14 09:14:07;;;;;;;13.23;9.40;;;;;;;8.53;62.61;101520.66;5034004;28;20206;-80
2022/03/14 09:16:35;;;;;;;12.53;9.13;;;;;;;8.62;63.19;101530.03;5033468;28;20210;-80
2022/03/14 09:19:01;;;;;;;11.27;9.43;;;;;;;8.68;63.63;101533.31;5035206;28;20309;-79
2022/03/14 09:21:33;;;;;;;11.37;9.37;;;;;;;8.75;63.44;101539.25;5029136;28;20194;-80
2022/03/14 09:24:00;;;;;;;13.27;9.83;;;;;;;8.81;64.12;101548.72;5029444;28;20333;-80
2022/03/14 09:26:27;;;;;;;12.00;9.83;;;;;;;8.87;64.24;101551.13;5032050;28;20206;-82
2022/03/14 09:28:53;;;;;;;13.93;9.50;;;;;;;8.91;64.91;101553.59;5029970;28;20241;-80
2022/03/14 09:31:22;;;;;;;11.90;9.50;;;;;;;8.95;64.86;101563.19;5025918;28;20560;-79
2022/03/14 09:33:48;;;;;;;11.90;9.53;;;;;;;8.99;65.14;101558.59;5028488;28;22509;-80
2022/03/14 09:36:15;;;;;;;12.90;10.63;;;;;;;9.00;65.87;101563.84;5026371;28;20202;-79
2022/03/14 09:38:41;;;;;;;13.23;9.60;;;;;;;9.01;65.52;101570.88;5026328;28;20242;-80
2022/03/14 09:41:08;;;;;;;11.50;8.77;;;;;;;9.03;66.06;101569.03;5027681;28;20202;-81
2022/03/14 09:43:39;;;;;;;12.20;9.60;;;;;;;9.03;65.89;101569.03;5033107;28;20212;-81
2022/03/14 09:46:07;;;;;;;10.63;9.33;;;;;;;9.05;65.81;101574.28;5027371;28;20210;-81
2022/03/14 09:48:37;;;;;;;10.40;9.13;;;;;;;9.06;66.13;101573.34;5032044;28;20321;-81
2022/03/14 09:51:05;;;;;;;10.70;8.83;;;;;;;9.07;66.02;101583.06;5036142;28;20234;-80
2022/03/14 09:53:34;;;;;;;10.13;8.20;;;;;;;9.05;67.33;101574.28;5029671;28;20204;-80
2022/03/14 09:56:01;;;;;;;10.13;8.07;;;;;;;9.07;66.94;101575.06;5026584;28;20203;-80
2022/03/14 09:58:28;;;;;;;9.77;7.87;;;;;;;9.07;67.26;101583.06;5028616;28;20229;-82
2022/03/14 10:00:54;;;;;;;9.20;7.60;;;;;;;9.10;67.43;101587.38;5029496;28;20214;-80
2022/03/14 10:03:22;;;;;;;8.83;7.87;;;;;;;9.10;67.18;101593.56;5023218;28;20839;-81
2022/03/14 10:05:50;;;;;;;9.00;7.07;;;;;;;9.10;67.85;101590.03;5025554;28;20217;-81
2022/03/14 10:08:17;;;;;;;8.73;7.47;;;;;;;9.08;69.21;101600.72;5032614;28;20226;-80
2022/03/14 10:10:44;;;;;;;7.97;7.17;;;;;;;9.08;69.12;101602.50;5024198;28;20236;-80
2022/03/14 10:13:11;;;;;;;8.87;7.60;;;;;;;9.01;69.94;101608.06;5029386;28;20210;-80
2022/03/14 10:15:40;;;;;;;9.17;7.50;;;;;;;9.02;69.47;101609.81;5033092;28;20260;-81
2022/03/14 10:18:11;;;;;;;9.07;7.80;;;;;;;9.04;69.63;101607.09;5027509;28;20233;-80
2022/03/14 10:20:40;;;;;;;9.47;8.20;;;;;;;9.05;71.02;101614.13;5029295;28;20203;-79
2022/03/14 10:23:08;;;;;;;9.43;7.77;;;;;;;9.03;71.12;101622.16;5026457;28;20206;-80
2022/03/14 10:25:41;;;;;;;9.83;8.03;;;;;;;9.00;71.29;101622.28;5029056;28;20213;-81
2022/03/14 10:28:09;;;;;;;9.93;8.13;;;;;;;8.96;71.79;101625.13;5024707;28;20237;-80
2022/03/14 10:30:36;;;;;;;10.80;8.77;;;;;;;8.96;72.46;101626.00;5034446;28;20221;-81
2022/03/14 10:33:12;;;;;;;9.63;8.07;;;;;;;8.96;72.78;101635.75;5030323;28;20233;-80
2022/03/14 10:35:40;;;;;;;11.37;7.90;;;;;;;8.95;72.87;101644.69;5031108;28;20210;-79
2022/03/14 10:38:10;;;;;;;10.13;7.57;;;;;;;8.94;73.40;101640.28;5037935;28;20231;-79
2022/03/14 10:40:38;;;;;;;11.17;8.47;;;;;;;8.91;73.42;101649.25;5029065;28;20825;-79
2022/03/14 10:43:07;;;;;;;10.43;8.03;;;;;;;8.89;73.64;101655.53;5034326;28;20285;-79
2022/03/14 10:45:34;;;;;;;9.57;8.57;;;;;;;8.85;74.21;101662.75;5036941;28;20206;-80
2022/03/14 10:48:02;;;;;;;11.47;8.30;;;;;;;8.84;74.25;101657.50;5037126;28;20719;-78
2022/03/14 10:50:31;;;;;;;8.73;7.23;;;;;;;8.81;74.68;101655.84;5029110;28;20270;-80
2022/03/14 10:53:06;;;;;;;10.07;8.93;;;;;;;8.83;74.80;101656.66;5024130;28;20286;-79
2022/03/14 10:55:39;;;;;;;9.93;8.03;;;;;;;8.83;74.87;101669.94;5026148;28;20593;-79
2022/03/14 10:58:14;;;;;;;8.90;7.00;;;;;;;8.83;75.01;101661.97;5020899;28;20223;-79
2022/03/14 11:00:49;;;;;;;8.33;7.00;;;;;;;8.84;75.56;101668.13;5026210;28;20612;-79
2022/03/14 11:03:23;;;;;;;8.83;6.50;;;;;;;8.83;75.72;101667.28;5030877;28;20213;-78
2022/03/14 11:05:50;;;;;;;8.10;6.60;;;;;;;8.84;76.30;101671.66;5030553;28;20241;-78
2022/03/14 11:08:34;;;;;;;7.03;5.57;;;;;;;8.86;76.22;101664.50;5029506;28;20281;-78
2022/03/14 11:11:05;;;;;;;5.93;5.37;;;;;;;8.89;76.84;101663.50;5029620;28;20223;-80
2022/03/14 11:13:32;;;;;;;5.13;4.63;;;;;;;8.91;76.81;101657.22;5031984;28;20211;-79
2022/03/14 11:15:59;;;;;;;6.10;4.60;;;;;;;8.93;77.58;101659.81;5022686;28;20237;-80
2022/03/14 11:18:26;;;;;;;5.57;4.13;;;;;;;8.93;77.42;101670.44;5028272;28;20704;-79
2022/03/14 11:20:53;;;;;;;5.00;3.70;;;;;;;8.92;77.15;101656.28;5030944;28;20693;-79
2022/03/14 11:23:21;;;;;;;4.20;3.63;;;;;;;8.93;77.44;101660.69;5027752;28;20203;-78
2022/03/14 11:25:48;;;;;;;5.37;4.07;;;;;;;8.95;77.86;101665.94;5024909;28;20700;-80